Time;durP1;ratioP1;P1;durP2;ratioP2;P2;SDS_P1;SDS_P2;PMS_P1;PMS_P2;Temp;Humidity;BMP_temperature;BMP_pressure;BME280_temperature;BME280_humidity;BME280_pressure;Samples;Min_cycle;Max_cycle;Signal;HPM_P1;HPM_P2
2021/09/11 00:00:55;;;;;;;10.10;9.10;;;;;;;19.88;92.28;99478.16;5073928;28;20923;-75
2021/09/11 00:03:22;;;;;;;10.60;9.60;;;;;;;19.96;91.37;99479.09;5073872;28;20534;-74
2021/09/11 00:05:48;;;;;;;12.90;9.97;;;;;;;19.88;92.47;99478.16;5073717;28;20984;-75
2021/09/11 00:08:15;;;;;;;10.63;9.53;;;;;;;19.95;92.20;99476.53;5073543;28;20427;-75
2021/09/11 00:10:42;;;;;;;9.83;8.80;;;;;;;19.78;93.02;99469.97;5073037;28;20438;-74
2021/09/11 00:13:08;;;;;;;11.40;10.30;;;;;;;19.78;93.23;99476.28;5073319;28;20537;-74
2021/09/11 00:15:36;;;;;;;12.43;10.47;;;;;;;19.83;93.47;99467.69;5073327;28;20446;-74
2021/09/11 00:18:06;;;;;;;10.50;9.50;;;;;;;19.85;93.31;99472.97;5073618;28;20446;-73
2021/09/11 00:20:33;;;;;;;10.13;9.13;;;;;;;19.94;91.95;99472.06;5072911;28;20467;-73
2021/09/11 00:23:01;;;;;;;10.60;9.57;;;;;;;19.89;92.39;99468.94;5073609;28;20933;-74
2021/09/11 00:25:29;;;;;;;10.77;9.73;;;;;;;19.98;91.64;99463.41;5073352;28;20471;-74
2021/09/11 00:27:58;;;;;;;11.03;9.93;;;;;;;19.98;91.50;99462.53;5073319;28;20865;-73
2021/09/11 00:30:25;;;;;;;11.80;9.63;;;;;;;19.86;91.92;99461.91;5072580;28;20433;-74
2021/09/11 00:32:52;;;;;;;10.47;9.10;;;;;;;20.04;90.45;99459.22;5073193;28;20549;-74
2021/09/11 00:35:20;;;;;;;10.23;9.23;;;;;;;20.07;89.73;99455.31;5073467;28;20434;-75
2021/09/11 00:37:48;;;;;;;10.80;9.60;;;;;;;19.97;91.00;99461.69;5072979;28;20497;-73
2021/09/11 00:40:17;;;;;;;10.80;9.67;;;;;;;20.05;90.02;99463.66;5072587;28;20474;-75
2021/09/11 00:42:48;;;;;;;10.73;9.60;;;;;;;20.15;89.35;99460.88;5072749;28;20484;-75
2021/09/11 00:45:15;;;;;;;9.90;8.90;;;;;;;20.06;89.69;99462.66;5073025;28;20457;-75
2021/09/11 00:47:42;;;;;;;10.07;9.07;;;;;;;19.86;91.28;99461.06;5072932;28;20486;-75
2021/09/11 00:50:11;;;;;;;11.20;10.10;;;;;;;19.86;92.08;99470.09;5072804;28;20510;-73
2021/09/11 00:52:40;;;;;;;10.73;9.73;;;;;;;19.86;91.29;99467.38;5073306;28;20799;-74
2021/09/11 00:55:08;;;;;;;14.23;10.67;;;;;;;19.65;92.61;99467.59;5072757;28;20907;-74
2021/09/11 00:57:37;;;;;;;11.40;9.70;;;;;;;19.71;93.19;99466.16;5072956;28;20876;-74
2021/09/11 01:00:04;;;;;;;11.70;10.50;;;;;;;19.80;91.94;99470.69;5072599;28;20478;-74
2021/09/11 01:02:31;;;;;;;11.70;10.50;;;;;;;19.77;91.91;99471.88;5072571;28;20506;-74
2021/09/11 01:04:58;;;;;;;11.53;10.40;;;;;;;19.83;91.61;99473.16;5073032;28;20509;-75
2021/09/11 01:07:24;;;;;;;12.13;10.07;;;;;;;19.77;91.57;99466.41;5072784;28;20441;-75
2021/09/11 01:09:52;;;;;;;11.13;10.00;;;;;;;19.79;92.39;99469.84;5072414;28;20437;-75
2021/09/11 01:12:20;;;;;;;12.77;11.17;;;;;;;19.76;91.72;99467.44;5072462;28;20928;-74
2021/09/11 01:14:47;;;;;;;13.30;12.00;;;;;;;19.71;92.30;99469.72;5072673;28;20868;-73
2021/09/11 01:17:14;;;;;;;12.07;10.87;;;;;;;19.56;92.84;99466.63;5072268;28;20431;-74
2021/09/11 01:19:41;;;;;;;14.63;11.00;;;;;;;19.67;92.25;99472.88;5072478;28;20435;-73
2021/09/11 01:22:12;;;;;;;13.80;11.00;;;;;;;19.66;92.83;99469.28;5072869;28;20439;-73
2021/09/11 01:24:55;;;;;;;14.33;11.30;;;;;;;19.68;93.35;99467.28;5072662;28;20734;-73
2021/09/11 01:27:22;;;;;;;12.50;11.00;;;;;;;19.74;92.61;99466.72;5072769;28;20514;-73
2021/09/11 01:29:53;;;;;;;11.90;10.40;;;;;;;19.73;92.72;99470.44;5072536;28;20931;-74
2021/09/11 01:32:20;;;;;;;13.70;10.57;;;;;;;19.79;91.77;99469.84;5072431;28;20513;-73
2021/09/11 01:34:47;;;;;;;12.37;10.20;;;;;;;19.73;92.23;99467.72;5072260;28;20522;-74
2021/09/11 01:37:14;;;;;;;11.63;10.40;;;;;;;19.68;93.09;99464.53;5072286;28;20424;-74
2021/09/11 01:39:41;;;;;;;11.43;10.33;;;;;;;19.82;91.16;99460.47;5072205;28;20442;-73
2021/09/11 01:42:09;;;;;;;11.30;9.77;;;;;;;19.64;92.76;99465.00;5072589;28;20426;-74
2021/09/11 01:44:36;;;;;;;12.10;10.90;;;;;;;19.61;93.54;99466.16;5072299;28;20438;-74
2021/09/11 01:47:02;;;;;;;11.13;10.03;;;;;;;19.69;92.68;99466.28;5071829;28;20447;-73
2021/09/11 01:49:29;;;;;;;10.60;9.50;;;;;;;19.61;93.27;99460.69;5072759;28;20473;-74
2021/09/11 01:51:55;;;;;;;11.23;10.13;;;;;;;19.84;91.83;99455.72;5071807;28;20426;-73
2021/09/11 01:54:22;;;;;;;11.53;10.17;;;;;;;19.55;93.68;99451.22;5071866;28;20447;-74
2021/09/11 01:56:49;;;;;;;11.83;10.63;;;;;;;19.62;93.05;99459.69;5072241;28;20510;-74
2021/09/11 01:59:16;;;;;;;13.20;11.30;;;;;;;19.70;93.00;99456.25;5071920;28;20514;-73
2021/09/11 02:01:43;;;;;;;14.47;11.57;;;;;;;19.71;91.79;99455.22;5071864;28;20521;-74
2021/09/11 02:04:10;;;;;;;16.30;11.33;;;;;;;19.69;92.28;99463.56;5072552;28;20434;-73
2021/09/11 02:06:36;;;;;;;15.70;11.80;;;;;;;19.54;93.39;99462.31;5072194;28;20430;-73
2021/09/11 02:09:03;;;;;;;13.40;11.80;;;;;;;19.61;93.49;99463.44;5074778;28;20986;-73
2021/09/11 02:11:30;;;;;;;13.50;12.17;;;;;;;19.67;93.44;99461.94;5075760;28;20466;-73
2021/09/11 02:13:56;;;;;;;11.73;10.47;;;;;;;19.68;93.00;99461.81;5075728;28;20459;-73
2021/09/11 02:16:24;;;;;;;13.20;11.63;;;;;;;19.63;93.06;99457.78;5075839;28;20539;-73
2021/09/11 02:18:51;;;;;;;11.63;10.50;;;;;;;19.78;91.82;99462.63;5075553;28;21003;-74
2021/09/11 02:21:17;;;;;;;14.20;11.70;;;;;;;19.87;91.10;99462.75;5075555;28;20483;-74
2021/09/11 02:23:44;;;;;;;14.33;12.93;;;;;;;19.53;92.93;99455.13;5076019;28;20422;-74
2021/09/11 02:26:11;;;;;;;15.53;14.03;;;;;;;19.54;93.55;99454.97;5075598;28;20475;-74
2021/09/11 02:28:38;;;;;;;14.20;12.80;;;;;;;19.54;93.87;99463.16;5075775;28;20912;-74
2021/09/11 02:31:05;;;;;;;18.27;13.53;;;;;;;19.56;93.26;99460.31;5075456;28;20521;-74
2021/09/11 02:33:33;;;;;;;14.27;12.77;;;;;;;19.62;93.25;99467.88;5075580;28;20514;-75
2021/09/11 02:35:59;;;;;;;16.00;13.60;;;;;;;19.68;93.08;99460.97;5075789;28;20474;-73
2021/09/11 02:38:26;;;;;;;14.50;12.17;;;;;;;19.78;92.08;99465.38;5075891;28;20470;-74
2021/09/11 02:40:53;;;;;;;13.00;11.70;;;;;;;19.82;91.42;99463.22;5074829;28;20561;-74
2021/09/11 02:43:19;;;;;;;12.87;11.57;;;;;;;19.72;91.73;99462.41;5075441;28;20517;-74
2021/09/11 02:45:46;;;;;;;17.10;12.30;;;;;;;19.78;91.65;99456.31;5075572;28;20514;-75
2021/09/11 02:48:13;;;;;;;16.57;12.07;;;;;;;19.75;91.62;99467.56;5075712;28;20988;-74
2021/09/11 02:50:41;;;;;;;13.80;12.40;;;;;;;19.42;93.83;99455.31;5075453;28;20463;-74
2021/09/11 02:53:07;;;;;;;14.40;12.90;;;;;;;19.60;93.89;99461.69;5075259;28;20478;-74
2021/09/11 02:55:34;;;;;;;14.03;12.40;;;;;;;19.60;92.76;99450.78;5075123;28;20506;-74
2021/09/11 02:58:01;;;;;;;15.10;12.30;;;;;;;19.64;92.39;99454.94;5074970;28;20514;-74
2021/09/11 03:00:27;;;;;;;15.00;12.90;;;;;;;19.77;91.66;99460.94;5074970;28;20467;-73
2021/09/11 03:02:56;;;;;;;13.60;12.10;;;;;;;19.76;92.14;99458.34;5074726;28;20533;-73
2021/09/11 03:05:23;;;;;;;14.10;12.50;;;;;;;19.76;91.85;99453.75;5075121;28;20473;-73
2021/09/11 03:07:51;;;;;;;13.70;12.30;;;;;;;19.72;92.06;99456.97;5075065;28;20897;-73
2021/09/11 03:10:18;;;;;;;12.80;11.47;;;;;;;19.72;91.73;99457.81;5074651;28;20439;-73
2021/09/11 03:12:44;;;;;;;12.83;11.40;;;;;;;19.69;92.28;99458.09;5074911;28;20980;-74
2021/09/11 03:15:12;;;;;;;14.27;11.47;;;;;;;19.78;92.02;99457.19;5075020;28;20430;-73
2021/09/11 03:17:39;;;;;;;14.10;12.70;;;;;;;19.75;91.61;99449.28;5074814;28;20445;-73
2021/09/11 03:20:07;;;;;;;13.70;12.30;;;;;;;19.69;91.94;99449.03;5074609;28;20454;-74
2021/09/11 03:22:35;;;;;;;14.00;12.43;;;;;;;19.66;92.62;99458.38;5074773;28;20434;-74
2021/09/11 03:25:04;;;;;;;13.90;12.00;;;;;;;19.72;92.30;99452.34;5074469;28;20482;-75
2021/09/11 03:27:30;;;;;;;13.87;12.17;;;;;;;19.77;91.37;99443.69;5074398;28;20459;-74
2021/09/11 03:29:57;;;;;;;14.20;12.50;;;;;;;19.69;92.45;99449.91;5074588;28;20422;-74
2021/09/11 03:32:24;;;;;;;13.90;11.80;;;;;;;19.73;92.10;99453.19;5074382;28;20438;-73
2021/09/11 03:34:50;;;;;;;13.27;11.47;;;;;;;19.69;92.09;99452.63;5074637;28;20430;-74
2021/09/11 03:37:17;;;;;;;14.67;12.93;;;;;;;19.69;91.87;99458.09;5074235;28;20450;-74
2021/09/11 03:39:43;;;;;;;13.03;11.63;;;;;;;19.72;92.26;99460.53;5073938;28;20528;-74
2021/09/11 03:42:11;;;;;;;14.40;11.57;;;;;;;19.78;91.46;99454.44;5074065;28;20499;-74
2021/09/11 03:44:38;;;;;;;17.10;11.63;;;;;;;19.78;91.70;99450.84;5074150;28;20462;-73
2021/09/11 03:47:05;;;;;;;15.53;13.50;;;;;;;19.79;91.41;99448.00;5074171;28;20804;-74
2021/09/11 03:49:31;;;;;;;13.37;11.30;;;;;;;19.75;90.99;99446.56;5074418;28;20911;-74
2021/09/11 03:51:58;;;;;;;13.83;11.43;;;;;;;19.61;92.39;99444.31;5073835;28;20443;-74
2021/09/11 03:54:25;;;;;;;13.63;12.33;;;;;;;19.51;93.57;99457.13;5074287;28;20431;-74
2021/09/11 03:56:51;;;;;;;14.33;12.83;;;;;;;19.49;93.91;99448.22;5073951;28;20429;-74
2021/09/11 03:59:19;;;;;;;14.73;13.23;;;;;;;19.52;94.35;99446.06;5073771;28;20435;-74
2021/09/11 04:01:46;;;;;;;14.63;12.10;;;;;;;19.69;92.92;99455.34;5073500;28;20217;-74
2021/09/11 04:04:12;;;;;;;16.67;13.00;;;;;;;19.61;93.24;99449.78;5073776;28;20415;-74
2021/09/11 04:06:39;;;;;;;15.37;13.80;;;;;;;19.51;93.32;99449.78;5073961;28;20441;-73
2021/09/11 04:09:06;;;;;;;14.97;13.43;;;;;;;19.58;93.67;99455.53;5073867;28;20916;-74
2021/09/11 04:11:32;;;;;;;13.80;12.40;;;;;;;19.58;93.39;99458.25;5073781;28;20431;-73
2021/09/11 04:13:59;;;;;;;15.37;13.07;;;;;;;19.44;94.30;99450.56;5073451;28;20510;-73
2021/09/11 04:16:27;;;;;;;15.37;13.33;;;;;;;19.64;93.54;99454.06;5073302;28;20479;-74
2021/09/11 04:18:54;;;;;;;14.00;12.33;;;;;;;19.67;92.40;99460.09;5073647;28;20944;-74
2021/09/11 04:21:20;;;;;;;16.17;12.60;;;;;;;19.62;93.31;99458.81;5073563;28;20498;-75
2021/09/11 04:23:47;;;;;;;14.80;13.30;;;;;;;19.57;93.52;99453.81;5073337;28;20443;-75
2021/09/11 04:26:14;;;;;;;15.30;13.70;;;;;;;19.50;94.57;99458.16;5073255;28;20459;-75
2021/09/11 04:28:40;;;;;;;17.63;13.57;;;;;;;19.49;94.89;99456.41;5073334;28;20462;-74
2021/09/11 04:31:07;;;;;;;13.80;12.40;;;;;;;19.51;94.80;99459.88;5072544;28;20445;-74
2021/09/11 04:33:35;;;;;;;14.27;12.87;;;;;;;19.51;94.71;99449.78;5073201;28;20439;-74
2021/09/11 04:36:01;;;;;;;20.60;14.30;;;;;;;19.60;93.91;99453.50;5073118;28;20510;-75
2021/09/11 04:38:28;;;;;;;14.80;13.23;;;;;;;19.59;94.57;99455.38;5073263;28;20439;-75
2021/09/11 04:40:55;;;;;;;13.87;12.10;;;;;;;19.51;95.13;99448.94;5073242;28;20462;-75
2021/09/11 04:43:21;;;;;;;15.93;13.50;;;;;;;19.63;94.58;99447.75;5073338;28;20853;-74
2021/09/11 04:45:48;;;;;;;18.20;14.03;;;;;;;19.70;93.29;99454.38;5073083;28;20777;-74
2021/09/11 04:48:16;;;;;;;14.70;13.10;;;;;;;19.72;93.23;99457.81;5073184;28;20443;-75
2021/09/11 04:50:44;;;;;;;16.47;14.53;;;;;;;19.67;93.14;99459.22;5073297;28;20423;-75
2021/09/11 04:53:11;;;;;;;16.47;13.33;;;;;;;19.69;93.51;99452.63;5073060;28;20782;-74
2021/09/11 04:55:38;;;;;;;15.67;13.13;;;;;;;19.77;92.77;99457.34;5073113;28;20446;-74
2021/09/11 04:58:05;;;;;;;14.80;12.33;;;;;;;19.67;93.46;99456.50;5073094;28;20755;-75
2021/09/11 05:00:32;;;;;;;17.10;12.37;;;;;;;19.70;93.60;99459.81;5072858;28;20441;-75
2021/09/11 05:02:58;;;;;;;15.70;14.10;;;;;;;19.55;95.06;99458.56;5072120;28;20565;-74
2021/09/11 05:05:25;;;;;;;14.60;12.57;;;;;;;19.49;95.29;99460.03;5072088;28;20442;-75
2021/09/11 05:07:55;;;;;;;15.73;13.60;;;;;;;19.54;95.08;99465.91;5072755;28;20492;-75
2021/09/11 05:10:22;;;;;;;16.33;13.93;;;;;;;19.68;94.56;99461.81;5072639;28;20423;-75
2021/09/11 05:12:49;;;;;;;13.70;12.30;;;;;;;19.61;94.55;99463.44;5072849;28;20964;-75
2021/09/11 05:15:16;;;;;;;14.93;13.33;;;;;;;19.75;93.48;99465.69;5072494;28;20485;-75
2021/09/11 05:17:43;;;;;;;16.10;13.37;;;;;;;19.86;92.76;99467.38;5073282;28;20739;-75
2021/09/11 05:20:11;;;;;;;18.77;14.13;;;;;;;19.77;92.68;99460.94;5073496;28;20433;-75
2021/09/11 05:22:37;;;;;;;15.07;13.47;;;;;;;19.65;94.19;99459.41;5072902;28;20481;-75
2021/09/11 05:25:09;;;;;;;15.60;13.80;;;;;;;19.63;94.69;99464.16;5073004;28;20983;-75
2021/09/11 05:27:36;;;;;;;17.07;14.27;;;;;;;19.74;94.46;99463.97;5072545;28;20454;-75
2021/09/11 05:30:02;;;;;;;16.40;14.30;;;;;;;19.80;93.48;99473.44;5072982;28;20488;-74
2021/09/11 05:32:29;;;;;;;17.60;15.10;;;;;;;19.74;94.06;99474.03;5073035;28;20455;-75
2021/09/11 05:34:56;;;;;;;16.10;14.40;;;;;;;19.61;94.99;99468.03;5072624;28;20522;-75
2021/09/11 05:37:22;;;;;;;16.63;13.80;;;;;;;19.56;95.80;99474.81;5073276;28;20443;-74
2021/09/11 05:39:49;;;;;;;15.07;12.93;;;;;;;19.59;95.42;99479.97;5073128;28;20735;-74
2021/09/11 05:42:19;;;;;;;16.10;14.40;;;;;;;19.71;94.97;99480.66;5074387;28;20827;-74
2021/09/11 05:44:46;;;;;;;14.87;13.27;;;;;;;19.83;93.80;99480.47;5076494;28;20466;-73
2021/09/11 05:47:12;;;;;;;15.70;14.10;;;;;;;19.72;94.45;99482.38;5077018;28;20474;-74
2021/09/11 05:49:39;;;;;;;16.47;14.70;;;;;;;19.68;94.44;99483.66;5076858;28;20844;-75
2021/09/11 05:52:07;;;;;;;16.83;14.67;;;;;;;19.85;93.58;99483.91;5076843;28;20441;-75
2021/09/11 05:54:33;;;;;;;16.77;14.57;;;;;;;19.89;93.38;99482.59;5076665;28;20514;-75
2021/09/11 05:57:00;;;;;;;16.67;14.97;;;;;;;19.90;93.48;99490.66;5076605;28;20438;-75
2021/09/11 05:59:28;;;;;;;17.43;15.50;;;;;;;19.83;93.56;99491.38;5076947;28;20787;-75
2021/09/11 06:01:55;;;;;;;15.70;14.03;;;;;;;19.76;94.53;99489.28;5076346;28;20458;-75
2021/09/11 06:04:21;;;;;;;15.97;14.27;;;;;;;19.90;93.60;99496.13;5076438;28;20438;-75
2021/09/11 06:06:48;;;;;;;15.50;13.90;;;;;;;19.90;92.78;99495.22;5076327;28;20462;-75
2021/09/11 06:09:16;;;;;;;16.20;14.30;;;;;;;19.89;93.55;99496.25;5076154;28;20525;-76
2021/09/11 06:11:43;;;;;;;16.90;15.10;;;;;;;19.94;92.96;99496.66;5075628;28;20465;-75
2021/09/11 06:14:09;;;;;;;17.83;15.93;;;;;;;19.97;93.04;99501.84;5076006;28;20481;-75
2021/09/11 06:16:37;;;;;;;18.57;14.93;;;;;;;19.96;93.25;99497.34;5075776;28;20449;-74
2021/09/11 06:19:04;;;;;;;17.97;15.33;;;;;;;19.97;93.49;99508.16;5075968;28;20430;-75
2021/09/11 06:21:30;;;;;;;18.60;16.40;;;;;;;19.97;93.14;99504.56;5075728;28;20838;-74
2021/09/11 06:23:57;;;;;;;17.47;15.60;;;;;;;19.96;93.69;99503.69;5075531;28;20445;-75
2021/09/11 06:26:24;;;;;;;18.83;16.17;;;;;;;20.16;92.58;99509.91;5075443;28;20553;-75
2021/09/11 06:28:50;;;;;;;20.37;17.43;;;;;;;20.17;91.61;99510.75;5075622;28;20429;-75
2021/09/11 06:31:17;;;;;;;22.43;19.67;;;;;;;20.25;91.29;99505.41;5075792;28;20481;-75
2021/09/11 06:33:45;;;;;;;19.07;15.93;;;;;;;20.26;90.89;99498.94;5076160;28;20446;-73
2021/09/11 06:36:14;;;;;;;21.03;17.47;;;;;;;20.21;91.78;99503.97;5075174;28;20533;-74
2021/09/11 06:38:40;;;;;;;20.27;17.73;;;;;;;20.32;90.69;99495.56;5075468;28;20430;-74
2021/09/11 06:41:10;;;;;;;18.83;16.40;;;;;;;20.39;90.60;99493.91;5075336;28;20538;-75
2021/09/11 06:43:36;;;;;;;18.83;16.53;;;;;;;20.16;92.00;99504.44;5075241;28;20419;-75
2021/09/11 06:46:03;;;;;;;20.50;17.07;;;;;;;20.22;92.05;99493.94;5075450;28;20522;-75
2021/09/11 06:48:29;;;;;;;18.37;16.40;;;;;;;20.26;91.64;99498.94;5075526;28;20457;-75
2021/09/11 06:50:57;;;;;;;21.03;16.27;;;;;;;20.28;92.01;99501.50;5075523;28;20518;-75
2021/09/11 06:53:24;;;;;;;19.10;15.93;;;;;;;20.41;90.72;99504.72;5074117;28;20502;-75
2021/09/11 06:55:53;;;;;;;21.43;17.67;;;;;;;20.44;90.65;99509.84;5075317;28;20466;-75
2021/09/11 06:58:19;;;;;;;19.20;15.00;;;;;;;20.50;89.80;99508.41;5074926;28;20431;-74
2021/09/11 07:00:46;;;;;;;17.83;16.03;;;;;;;20.57;89.64;99506.78;5074839;28;20502;-75
2021/09/11 07:03:13;;;;;;;17.20;15.50;;;;;;;20.63;88.88;99502.59;5075133;28;21201;-74
2021/09/11 07:05:39;;;;;;;21.20;18.40;;;;;;;20.71;88.37;99514.44;5074904;28;20439;-74
2021/09/11 07:08:07;;;;;;;18.67;15.60;;;;;;;20.69;88.58;99511.03;5074705;28;20484;-74
2021/09/11 07:10:34;;;;;;;16.27;14.60;;;;;;;20.72;88.11;99507.97;5074858;28;20498;-74
2021/09/11 07:13:00;;;;;;;19.70;17.20;;;;;;;20.92;86.55;99505.06;5075228;28;20767;-74
2021/09/11 07:15:27;;;;;;;17.07;15.37;;;;;;;20.95;86.71;99497.41;5074713;28;20765;-74
2021/09/11 07:17:55;;;;;;;18.90;15.90;;;;;;;20.94;86.47;99503.00;5074549;28;20584;-73
2021/09/11 07:20:22;;;;;;;18.43;14.27;;;;;;;20.96;86.14;99507.34;5074593;28;20905;-74
2021/09/11 07:22:49;;;;;;;14.70;13.23;;;;;;;21.03;86.16;99507.56;5074974;28;20481;-74
2021/09/11 07:25:17;;;;;;;12.23;10.80;;;;;;;21.03;85.35;99508.41;5074428;28;21082;-74
2021/09/11 07:27:43;;;;;;;13.87;10.50;;;;;;;21.08;84.76;99510.69;5074304;28;20431;-74
2021/09/11 07:30:11;;;;;;;11.73;10.03;;;;;;;21.04;84.79;99510.13;5074524;28;20538;-75
2021/09/11 07:32:38;;;;;;;12.70;10.70;;;;;;;21.06;85.39;99511.88;5073910;28;20574;-75
2021/09/11 07:35:06;;;;;;;12.33;11.10;;;;;;;21.29;83.99;99518.53;5074368;28;20806;-75
2021/09/11 07:37:32;;;;;;;12.93;11.27;;;;;;;21.30;84.12;99516.66;5074227;28;20438;-75
2021/09/11 07:39:59;;;;;;;12.87;11.07;;;;;;;20.75;86.98;99520.47;5074274;28;20528;-75
2021/09/11 07:42:27;;;;;;;13.00;11.33;;;;;;;20.97;86.69;99535.56;5074500;28;20551;-76
2021/09/11 07:44:54;;;;;;;13.30;11.80;;;;;;;21.00;86.47;99529.75;5074529;28;20439;-74
2021/09/11 07:47:20;;;;;;;15.20;12.20;;;;;;;20.83;87.60;99534.25;5074813;28;20541;-74
2021/09/11 07:49:48;;;;;;;14.00;12.50;;;;;;;20.81;88.80;99534.38;5074729;28;20433;-75
2021/09/11 07:52:15;;;;;;;14.37;13.00;;;;;;;20.70;89.22;99531.03;5074564;28;20461;-74
2021/09/11 07:54:42;;;;;;;14.73;13.23;;;;;;;20.45;91.61;99546.28;5074119;28;20963;-74
2021/09/11 07:57:10;;;;;;;13.03;11.23;;;;;;;20.57;91.13;99545.94;5073771;28;20424;-75
2021/09/11 07:59:38;;;;;;;14.43;11.60;;;;;;;20.64;91.00;99537.97;5073542;28;20969;-75
2021/09/11 08:02:05;;;;;;;12.83;11.43;;;;;;;20.96;88.43;99539.28;5073925;28;20561;-77
2021/09/11 08:04:31;;;;;;;13.03;11.10;;;;;;;21.28;86.14;99540.59;5073968;28;20474;-74
2021/09/11 08:06:58;;;;;;;11.57;10.37;;;;;;;21.57;83.86;99549.41;5073008;28;20431;-74
2021/09/11 08:09:25;;;;;;;12.03;10.90;;;;;;;21.41;84.87;99549.28;5074095;28;20514;-74
2021/09/11 08:11:51;;;;;;;11.70;10.50;;;;;;;21.30;85.64;99557.72;5074298;28;20435;-74
2021/09/11 08:14:18;;;;;;;11.50;10.30;;;;;;;21.39;85.49;99551.28;5074126;28;20891;-73
2021/09/11 08:16:46;;;;;;;9.90;9.00;;;;;;;21.53;84.73;99550.75;5073781;28;20443;-74
2021/09/11 08:19:12;;;;;;;8.43;7.63;;;;;;;21.30;85.17;99553.13;5073915;28;20518;-74
2021/09/11 08:21:39;;;;;;;8.67;7.10;;;;;;;20.91;87.21;99552.59;5073893;28;20521;-74
2021/09/11 08:24:06;;;;;;;9.17;8.27;;;;;;;20.85;88.72;99553.22;5072515;28;20528;-75
2021/09/11 08:26:32;;;;;;;8.80;7.90;;;;;;;20.77;88.64;99556.75;5072762;28;20993;-75
2021/09/11 08:29:02;;;;;;;7.43;6.70;;;;;;;20.71;89.92;99568.31;5073431;28;20796;-76
2021/09/11 08:31:29;;;;;;;9.00;7.30;;;;;;;20.69;89.81;99564.88;5073544;28;20510;-75
2021/09/11 08:33:57;;;;;;;7.83;7.13;;;;;;;20.80;89.76;99557.31;5067350;28;20902;-74
2021/09/11 08:36:25;;;;;;;7.70;6.90;;;;;;;20.76;89.84;99566.00;5053534;28;20463;-74
2021/09/11 08:38:52;;;;;;;8.10;7.30;;;;;;;21.01;88.68;99564.34;5053373;28;20435;-74
2021/09/11 08:41:18;;;;;;;8.43;7.03;;;;;;;21.16;87.27;99570.09;5055714;28;20766;-75
2021/09/11 08:43:45;;;;;;;7.30;6.60;;;;;;;21.03;87.41;99565.06;5073549;28;20975;-74
2021/09/11 08:46:12;;;;;;;8.33;6.37;;;;;;;21.25;85.45;99571.88;5073311;28;20454;-75
2021/09/11 08:48:38;;;;;;;6.80;6.10;;;;;;;21.85;81.76;99577.50;5074034;28;20542;-74
2021/09/11 08:51:07;;;;;;;6.40;5.80;;;;;;;21.92;79.57;99579.59;5073810;28;20529;-75
2021/09/11 08:53:34;;;;;;;6.67;6.07;;;;;;;22.17;78.06;99573.19;5073453;28;20423;-73
2021/09/11 08:56:00;;;;;;;6.47;4.90;;;;;;;22.40;76.67;99573.50;5073715;28;20915;-75
2021/09/11 08:58:27;;;;;;;5.97;5.20;;;;;;;22.15;77.53;99568.91;5072330;28;20437;-75
2021/09/11 09:00:55;;;;;;;5.80;5.30;;;;;;;22.43;76.68;99575.94;5073083;28;20522;-74
2021/09/11 09:03:30;;;;;;;5.30;4.77;;;;;;;22.27;76.62;99570.34;5072864;28;20573;-73
2021/09/11 09:06:09;;;;;;;5.80;5.30;;;;;;;22.23;75.75;99558.03;5072851;28;20974;-75
2021/09/11 09:08:37;;;;;;;5.60;5.10;;;;;;;22.36;76.08;99574.84;5073024;28;20435;-75
2021/09/11 09:11:15;;;;;;;7.17;6.47;;;;;;;22.69;74.47;99569.47;5072930;28;20443;-75
2021/09/11 09:13:53;;;;;;;9.27;8.30;;;;;;;23.12;72.22;99572.16;5073009;28;20469;-75
2021/09/11 09:16:20;;;;;;;8.77;7.87;;;;;;;23.15;71.58;99569.91;5072447;28;20477;-75
2021/09/11 09:18:47;;;;;;;6.63;4.93;;;;;;;22.84;71.17;99572.44;5072214;28;20431;-73
2021/09/11 09:21:18;;;;;;;5.97;4.93;;;;;;;22.19;75.11;99573.06;5072850;28;20471;-75
2021/09/11 09:23:53;;;;;;;5.90;5.33;;;;;;;22.48;72.54;99578.16;5072259;28;20481;-74
2021/09/11 09:26:20;;;;;;;6.60;5.90;;;;;;;22.31;73.83;99574.50;5072616;28;20478;-75
2021/09/11 09:29:08;;;;;;;5.87;5.00;;;;;;;22.00;72.98;99571.41;5072571;28;20487;-75
2021/09/11 09:31:35;;;;;;;5.63;4.70;;;;;;;22.15;71.60;99572.50;5072726;28;20901;-75
2021/09/11 09:34:02;;;;;;;5.60;4.40;;;;;;;22.51;68.85;99577.81;5071928;28;20506;-75
2021/09/11 09:36:37;;;;;;;4.93;4.43;;;;;;;23.23;66.21;99580.91;5072729;28;20404;-74
2021/09/11 09:39:07;;;;;;;4.73;4.33;;;;;;;23.23;65.65;99580.06;5072314;28;20551;-75
2021/09/11 09:42:02;;;;;;;5.80;5.23;;;;;;;22.52;68.41;99573.19;5072544;28;20905;-75
2021/09/11 09:44:28;;;;;;;5.33;4.60;;;;;;;22.63;68.12;99584.72;5062324;28;20856;-75
2021/09/11 09:46:55;;;;;;;4.27;3.87;;;;;;;22.24;66.85;99568.81;5072758;28;20461;-76
2021/09/11 09:49:24;;;;;;;4.80;4.40;;;;;;;22.12;67.96;99567.38;5072553;28;20842;-73
2021/09/11 09:51:52;;;;;;;7.33;4.03;;;;;;;22.03;67.83;99571.09;5072477;28;20434;-75
2021/09/11 09:54:21;;;;;;;4.40;4.00;;;;;;;21.50;69.57;99566.63;5073021;28;20526;-75
2021/09/11 09:56:47;;;;;;;4.93;4.33;;;;;;;21.80;69.35;99568.91;5072597;28;20463;-74
2021/09/11 09:59:17;;;;;;;4.60;4.20;;;;;;;22.51;67.14;99569.59;5072452;28;20423;-74
2021/09/11 10:01:44;;;;;;;5.27;3.80;;;;;;;23.08;64.82;99566.97;5072068;28;20453;-74
2021/09/11 10:04:15;;;;;;;3.83;3.53;;;;;;;23.15;62.65;99560.81;5072547;28;20462;-74
2021/09/11 10:06:52;;;;;;;4.10;3.80;;;;;;;23.16;62.63;99565.28;5073034;28;20472;-75
2021/09/11 10:09:29;;;;;;;5.57;4.60;;;;;;;23.27;62.68;99567.69;5072197;28;20825;-74
2021/09/11 10:11:56;;;;;;;5.00;3.93;;;;;;;23.34;62.82;99557.72;5072577;28;20972;-74
2021/09/11 10:14:32;;;;;;;7.13;4.47;;;;;;;23.55;62.44;99567.31;5073123;28;20439;-75
2021/09/11 10:17:00;;;;;;;4.27;3.70;;;;;;;24.09;60.66;99567.56;5072843;28;20418;-75
2021/09/11 10:19:28;;;;;;;4.13;3.83;;;;;;;24.19;59.73;99576.47;5071270;28;20493;-75
2021/09/11 10:22:08;;;;;;;4.70;3.90;;;;;;;24.31;58.93;99569.56;5072870;28;20462;-75
2021/09/11 10:24:37;;;;;;;4.97;4.00;;;;;;;23.58;62.67;99569.72;5072963;28;20502;-75
2021/09/11 10:27:11;;;;;;;5.13;3.83;;;;;;;22.82;65.68;99572.59;5072542;28;20444;-74
2021/09/11 10:29:54;;;;;;;4.60;4.20;;;;;;;22.64;66.10;99585.59;5074224;28;20446;-75
2021/09/11 10:32:44;;;;;;;4.40;4.00;;;;;;;22.39;65.03;99576.44;5075508;28;20514;-74
2021/09/11 10:35:12;;;;;;;3.70;3.47;;;;;;;22.15;66.00;99577.13;5073230;28;20455;-75
2021/09/11 10:37:42;;;;;;;5.33;4.20;;;;;;;22.03;67.01;99574.69;5075447;28;20792;-74
2021/09/11 10:40:31;;;;;;;4.83;4.30;;;;;;;21.99;67.54;99577.91;5075457;28;20447;-74
2021/09/11 10:43:20;;;;;;;7.23;4.90;;;;;;;21.90;67.99;99576.16;5075765;28;21074;-74
2021/09/11 10:45:57;;;;;;;4.97;4.47;;;;;;;21.90;68.96;99570.66;5056984;28;20447;-74
2021/09/11 10:48:50;;;;;;;4.93;4.53;;;;;;;22.48;66.97;99564.44;5076418;28;20450;-75
2021/09/11 10:51:29;;;;;;;5.20;4.70;;;;;;;22.75;65.39;99562.44;5075503;28;20485;-75
2021/09/11 10:54:12;;;;;;;5.30;4.27;;;;;;;22.84;64.83;99547.72;5075258;28;20771;-75
2021/09/11 10:56:50;;;;;;;5.20;4.73;;;;;;;22.80;64.49;99557.31;5075474;28;20443;-74
2021/09/11 10:59:30;;;;;;;6.73;4.80;;;;;;;23.09;64.57;99545.91;5075365;28;20492;-74
2021/09/11 11:02:37;;;;;;;8.13;5.10;;;;;;;23.17;63.47;99539.53;5075362;28;20458;-75
2021/09/11 11:05:06;;;;;;;5.80;4.80;;;;;;;23.38;61.91;99539.88;5075471;28;20504;-75
2021/09/11 11:08:02;;;;;;;4.80;4.40;;;;;;;23.30;61.64;99540.72;5075975;28;20497;-75
2021/09/11 11:10:33;;;;;;;7.80;5.03;;;;;;;23.28;61.35;99544.69;5071977;28;20966;-76
2021/09/11 11:13:03;;;;;;;4.57;4.27;;;;;;;23.45;61.96;99540.91;5074845;28;20526;-75
2021/09/11 11:15:30;;;;;;;4.90;4.20;;;;;;;24.00;57.49;99543.88;5067046;28;20985;-74
2021/09/11 11:17:57;;;;;;;3.43;3.13;;;;;;;24.26;55.31;99541.72;5075232;28;20475;-77
2021/09/11 11:20:27;;;;;;;5.53;3.80;;;;;;;24.79;53.11;99538.38;5074907;28;20498;-74
2021/09/11 11:22:57;;;;;;;5.60;4.40;;;;;;;25.02;52.65;99539.22;5074857;28;20441;-75
2021/09/11 11:25:32;;;;;;;5.03;4.07;;;;;;;24.87;53.64;99543.78;5074263;28;20565;-75
2021/09/11 11:27:59;;;;;;;4.73;3.97;;;;;;;24.29;55.90;99543.25;5074718;28;20437;-74